createdAt,value
2019-01-15T00:00:08.100Z,101035.75
2019-01-15T00:02:36.679Z,101034.51
2019-01-15T00:05:06.661Z,101042.19
2019-01-15T00:07:35.120Z,101045.83
2019-01-15T00:10:05.375Z,101043.08
2019-01-15T00:12:33.878Z,101048.25
2019-01-15T00:15:02.383Z,101040.31
2019-01-15T00:17:32.444Z,101039.88
2019-01-15T00:20:00.926Z,101034.25
2019-01-15T00:22:29.485Z,101037.28
2019-01-15T00:24:57.922Z,101032.17
2019-01-15T00:27:26.484Z,101033.78
2019-01-15T00:29:54.927Z,101029.25
2019-01-15T00:32:23.372Z,101032.75
2019-01-15T00:34:53.344Z,101028.94
2019-01-15T00:37:21.793Z,101034.80
2019-01-15T00:39:51.889Z,101034.27
2019-01-15T00:42:20.361Z,101041.00
2019-01-15T00:44:48.821Z,101045.83
2019-01-15T00:47:17.332Z,101047.36
2019-01-15T00:49:46.074Z,101042.99
2019-01-15T00:52:14.579Z,101041.78
2019-01-15T00:54:44.785Z,101038.72
2019-01-15T00:57:13.202Z,101027.20
2019-01-15T00:59:41.683Z,101029.56
2019-01-15T01:02:10.201Z,101028.44
2019-01-15T01:04:38.725Z,101022.20
2019-01-15T01:07:07.239Z,101025.03
2019-01-15T01:09:35.927Z,101028.38
2019-01-15T01:12:04.411Z,101040.19
2019-01-15T01:14:32.833Z,101032.10
2019-01-15T01:17:01.435Z,101038.30
2019-01-15T01:19:29.875Z,101037.50
2019-01-15T01:21:58.421Z,101039.26
2019-01-15T01:24:28.092Z,101037.13
2019-01-15T01:26:56.548Z,101051.47
2019-01-15T01:29:24.971Z,101043.45
2019-01-15T01:31:55.083Z,101061.56
2019-01-15T01:34:25.067Z,101047.59
2019-01-15T01:36:53.516Z,101059.95
2019-01-15T01:39:21.985Z,101060.91
2019-01-15T01:41:51.813Z,101074.42
2019-01-15T01:44:20.279Z,101069.25
2019-01-15T01:46:48.729Z,101072.28
2019-01-15T01:49:17.257Z,101072.66
2019-01-15T01:51:45.707Z,101079.72
2019-01-15T01:54:14.177Z,101075.11
2019-01-15T01:56:42.662Z,101077.98
2019-01-15T01:59:11.107Z,101081.16
2019-01-15T02:01:39.538Z,101086.19
2019-01-15T02:04:07.993Z,101079.59
2019-01-15T02:06:37.984Z,101083.09
2019-01-15T02:09:07.976Z,101072.44
2019-01-15T02:11:36.588Z,101071.82
2019-01-15T02:14:05.198Z,101062.21
2019-01-15T02:16:33.648Z,101064.75
2019-01-15T02:19:02.084Z,101054.50
2019-01-15T02:21:30.553Z,101057.97
2019-01-15T02:24:01.452Z,101054.25
2019-01-15T02:26:32.597Z,101051.24
2019-01-15T02:29:01.026Z,101043.69
2019-01-15T02:31:29.523Z,101043.55
2019-01-15T02:33:57.950Z,101030.37
2019-01-15T02:36:26.434Z,101033.15
2019-01-15T02:38:54.838Z,101028.04
2019-01-15T02:41:23.387Z,101026.63
2019-01-15T02:43:53.859Z,101013.63
2019-01-15T02:46:22.326Z,101012.87
2019-01-15T02:48:50.845Z,101004.65
2019-01-15T02:51:19.797Z,101018.77
2019-01-15T02:53:48.274Z,101018.69
2019-01-15T02:56:16.764Z,101016.86
2019-01-15T02:58:46.705Z,101003.06
2019-01-15T03:01:15.159Z,101005.58
2019-01-15T03:03:43.697Z,101010.59
2019-01-15T03:06:12.343Z,101015.33
2019-01-15T03:08:40.747Z,101011.55
2019-01-15T03:11:09.204Z,101009.16
2019-01-15T03:13:39.737Z,101018.62
2019-01-15T03:16:08.269Z,101000.50
2019-01-15T03:18:36.714Z,101006.68
2019-01-15T03:21:05.304Z,101007.92
2019-01-15T03:23:33.759Z,101006.77
2019-01-15T03:26:02.339Z,101008.41
2019-01-15T03:28:30.765Z,101014.71
2019-01-15T03:31:02.297Z,101015.98
2019-01-15T03:33:30.781Z,101008.90
2019-01-15T03:36:00.170Z,101009.69
2019-01-15T03:38:28.609Z,101002.52
2019-01-15T03:40:57.062Z,101003.81
2019-01-15T03:43:25.501Z,100997.95
2019-01-15T03:45:54.004Z,100990.84
2019-01-15T03:48:22.451Z,100991.78
2019-01-15T03:50:50.939Z,101003.80
2019-01-15T03:53:21.088Z,100985.50
2019-01-15T03:55:49.645Z,100995.70
2019-01-15T03:58:18.094Z,100997.95
2019-01-15T04:00:46.606Z,101008.14
2019-01-15T04:03:15.166Z,100998.69
2019-01-15T04:05:43.637Z,100996.22
2019-01-15T04:08:12.093Z,101000.49
2019-01-15T04:10:40.585Z,101003.52
2019-01-15T04:13:11.452Z,101001.52
2019-01-15T04:15:39.240Z,100995.97
2019-01-15T04:18:07.824Z,100998.52
2019-01-15T04:20:36.396Z,100997.73
2019-01-15T04:23:04.916Z,100996.86
2019-01-15T04:25:33.408Z,100982.77
2019-01-15T04:28:01.975Z,100985.66
2019-01-15T04:30:30.669Z,100975.95
2019-01-15T04:32:59.154Z,100992.94
2019-01-15T04:35:27.552Z,100984.98
2019-01-15T04:37:56.048Z,100985.80
2019-01-15T04:40:24.474Z,100988.40
2019-01-15T04:42:52.992Z,100982.80
2019-01-15T04:45:23.523Z,100990.50
2019-01-15T04:47:52.041Z,100985.74
2019-01-15T04:50:20.640Z,101001.33
2019-01-15T04:52:50.846Z,100985.74
2019-01-15T04:55:19.419Z,100988.27
2019-01-15T04:57:47.876Z,100988.61
2019-01-15T05:00:18.978Z,100996.63
2019-01-15T05:02:48.007Z,100994.64
2019-01-15T05:05:16.780Z,100996.03
2019-01-15T05:07:45.369Z,100993.89
2019-01-15T05:10:15.444Z,100982.06
2019-01-15T05:12:44.008Z,100981.58
2019-01-15T05:15:16.929Z,100977.97
2019-01-15T05:17:45.497Z,100974.56
2019-01-15T05:20:18.646Z,100971.87
2019-01-15T05:22:47.405Z,100972.22
2019-01-15T05:25:18.711Z,100966.80
2019-01-15T05:27:47.192Z,100954.16
2019-01-15T05:30:24.078Z,100953.81
2019-01-15T05:32:52.657Z,100944.58
2019-01-15T05:35:21.162Z,100948.31
2019-01-15T05:37:51.018Z,100949.33
2019-01-15T05:40:20.136Z,100966.34
2019-01-15T05:42:48.815Z,100952.02
2019-01-15T05:45:21.110Z,100952.41
2019-01-15T05:47:51.514Z,100956.85
2019-01-15T05:50:21.738Z,100952.30
2019-01-15T05:52:50.254Z,100958.39
2019-01-15T05:55:18.679Z,100943.47
2019-01-15T05:57:47.190Z,100935.49
2019-01-15T06:00:18.719Z,100938.95
2019-01-15T06:02:47.189Z,100933.07
2019-01-15T06:05:16.369Z,100930.59
2019-01-15T06:07:44.849Z,100925.51
2019-01-15T06:10:15.300Z,100912.91
2019-01-15T06:12:43.831Z,100918.87
2019-01-15T06:15:14.559Z,100916.78
2019-01-15T06:17:42.999Z,100903.31
2019-01-15T06:20:23.361Z,100906.38
2019-01-15T06:22:51.919Z,100903.97
2019-01-15T06:25:20.721Z,100889.22
2019-01-15T06:27:51.010Z,100889.03
2019-01-15T06:30:22.609Z,100890.38
2019-01-15T06:32:51.039Z,100898.34
2019-01-15T06:35:19.647Z,100880.47
2019-01-15T06:37:48.188Z,100884.34
2019-01-15T06:40:20.807Z,100888.95
2019-01-15T06:42:49.448Z,100893.52
2019-01-15T06:45:31.490Z,100887.17
2019-01-15T06:48:01.936Z,100875.70
2019-01-15T06:50:30.377Z,100884.56
2019-01-15T06:52:58.898Z,100891.81
2019-01-15T06:55:31.819Z,100886.77
2019-01-15T06:58:00.227Z,100885.55
2019-01-15T07:00:30.515Z,100903.38
2019-01-15T07:03:00.213Z,100905.97
2019-01-15T07:05:29.046Z,100924.09
2019-01-15T07:07:57.471Z,100919.40
2019-01-15T07:10:28.951Z,100894.06
2019-01-15T07:12:57.502Z,100906.08
2019-01-15T07:15:26.061Z,100872.63
2019-01-15T07:17:56.889Z,100903.45
2019-01-15T07:20:25.437Z,100887.31
2019-01-15T07:22:54.048Z,100894.61
2019-01-15T07:25:24.696Z,100877.20
2019-01-15T07:27:53.186Z,100897.56
2019-01-15T07:30:36.767Z,100892.48
2019-01-15T07:33:06.154Z,100901.78
2019-01-15T07:35:35.112Z,100903.99
2019-01-15T07:38:03.619Z,100904.47
2019-01-15T07:40:32.072Z,100905.38
2019-01-15T07:43:00.654Z,100907.87
2019-01-15T07:45:29.243Z,100906.67
2019-01-15T07:47:57.753Z,100897.02
2019-01-15T07:50:26.256Z,100899.20
2019-01-15T07:52:54.836Z,100903.97
2019-01-15T07:55:23.501Z,100902.81
2019-01-15T07:57:52.061Z,100895.34
2019-01-15T08:00:25.079Z,100893.34
2019-01-15T08:02:54.395Z,100903.69
2019-01-15T08:05:24.695Z,100894.37
2019-01-15T08:07:53.199Z,100887.72
2019-01-15T08:10:21.742Z,100895.47
2019-01-15T08:12:50.741Z,100889.31
2019-01-15T08:15:24.890Z,100896.61
2019-01-15T08:17:53.329Z,100897.44
2019-01-15T08:20:22.026Z,100883.94
2019-01-15T08:22:50.566Z,100882.71
2019-01-15T08:25:19.500Z,100882.66
2019-01-15T08:27:48.000Z,100880.53
2019-01-15T08:30:28.218Z,100885.67
2019-01-15T08:32:58.235Z,100881.54
2019-01-15T08:35:26.753Z,100877.31
2019-01-15T08:37:55.455Z,100874.77
2019-01-15T08:40:24.097Z,100888.84
2019-01-15T08:42:52.607Z,100882.81
2019-01-15T08:45:21.159Z,100874.32
2019-01-15T08:47:54.351Z,100874.01
2019-01-15T08:50:30.827Z,100875.98
2019-01-15T08:52:59.414Z,100878.91
2019-01-15T08:55:28.009Z,100875.98
2019-01-15T08:57:56.515Z,100869.37
2019-01-15T09:00:25.071Z,100869.52
2019-01-15T09:02:53.526Z,100869.06
2019-01-15T09:05:22.146Z,100874.27
2019-01-15T09:07:52.108Z,100872.90
2019-01-15T09:10:20.636Z,100870.85
2019-01-15T09:12:49.235Z,100873.36
2019-01-15T09:15:22.123Z,100870.00
2019-01-15T09:17:50.740Z,100869.59
2019-01-15T09:20:20.927Z,100855.70
2019-01-15T09:22:51.164Z,100861.66
2019-01-15T09:25:19.695Z,100870.63
2019-01-15T09:27:48.282Z,100860.44
2019-01-15T09:30:18.869Z,100868.55
2019-01-15T09:32:47.512Z,100849.52
2019-01-15T09:35:16.050Z,100843.19
2019-01-15T09:37:46.042Z,100842.69
2019-01-15T09:40:17.381Z,100847.11
2019-01-15T09:42:45.932Z,100835.19
2019-01-15T09:45:16.672Z,100837.01
2019-01-15T09:47:49.592Z,100838.73
2019-01-15T09:50:19.654Z,100836.23
2019-01-15T09:52:48.313Z,100829.91
2019-01-15T09:55:16.951Z,100831.68
2019-01-15T09:57:45.522Z,100838.88
2019-01-15T10:00:16.732Z,100834.23
2019-01-15T10:02:45.354Z,100827.45
2019-01-15T10:05:13.887Z,100831.64
2019-01-15T10:07:42.417Z,100816.37
2019-01-15T10:10:13.846Z,100837.20
2019-01-15T10:12:42.341Z,100825.25
2019-01-15T10:15:14.022Z,100833.87
2019-01-15T10:17:42.743Z,100824.53
2019-01-15T10:20:13.069Z,100823.30
2019-01-15T10:22:41.682Z,100828.82
2019-01-15T10:25:12.200Z,100826.72
2019-01-15T10:27:41.281Z,100817.79
2019-01-15T10:30:20.004Z,100805.08
2019-01-15T10:32:51.494Z,100804.67
2019-01-15T10:35:22.998Z,100813.19
2019-01-15T10:37:51.540Z,100800.02
2019-01-15T10:40:20.006Z,100801.79
2019-01-15T10:42:51.290Z,100810.77
2019-01-15T10:45:20.057Z,100801.80
2019-01-15T10:47:48.588Z,100804.38
2019-01-15T10:50:17.359Z,100800.15
2019-01-15T10:52:45.792Z,100796.77
2019-01-15T10:55:14.271Z,100794.26
2019-01-15T10:57:42.881Z,100783.68
2019-01-15T11:00:13.653Z,100784.92
2019-01-15T11:02:43.759Z,100785.37
2019-01-15T11:05:12.860Z,100787.52
2019-01-15T11:07:41.338Z,100778.66
2019-01-15T11:10:12.833Z,100785.03
2019-01-15T11:12:41.752Z,100773.09
2019-01-15T11:15:10.328Z,100783.39
2019-01-15T11:17:38.874Z,100776.55
2019-01-15T11:20:13.327Z,100770.62
2019-01-15T11:22:43.316Z,100770.25
2019-01-15T11:25:11.919Z,100775.36
2019-01-15T11:27:40.375Z,100774.08
2019-01-15T11:30:11.928Z,100770.70
2019-01-15T11:32:40.353Z,100766.05
2019-01-15T11:35:13.036Z,100763.09
2019-01-15T11:37:41.495Z,100767.70
2019-01-15T11:40:15.968Z,100749.39
2019-01-15T11:42:44.475Z,100749.39
2019-01-15T11:45:18.832Z,100752.84
2019-01-15T11:47:47.808Z,100757.16
2019-01-15T11:50:18.708Z,100748.63
2019-01-15T11:52:47.320Z,100744.80
2019-01-15T11:55:15.816Z,100727.42
2019-01-15T11:57:45.753Z,100739.77
2019-01-15T12:00:36.816Z,100721.87
2019-01-15T12:03:10.586Z,100727.84
2019-01-15T12:05:58.090Z,100720.66
2019-01-15T12:08:44.243Z,100713.07
2019-01-15T12:11:14.386Z,100717.77
2019-01-15T12:13:53.950Z,100715.21
2019-01-15T12:16:29.964Z,100722.04
2019-01-15T12:19:09.346Z,100722.04
2019-01-15T12:21:45.138Z,100711.41
2019-01-15T12:24:18.331Z,100708.48
2019-01-15T12:27:00.737Z,100710.66
2019-01-15T12:29:47.029Z,100696.16
2019-01-15T12:32:17.124Z,100689.81
2019-01-15T12:35:03.331Z,100683.45
2019-01-15T12:37:33.621Z,100683.39
2019-01-15T12:40:09.973Z,100689.39
2019-01-15T12:42:48.780Z,100670.30
2019-01-15T12:45:35.848Z,100684.38
2019-01-15T12:48:18.647Z,100669.05
2019-01-15T12:50:51.405Z,100669.05
2019-01-15T12:53:27.627Z,100660.15
2019-01-15T12:56:12.962Z,100660.15
2019-01-15T12:58:43.106Z,100664.90
2019-01-15T13:01:28.419Z,100659.38
2019-01-15T13:04:04.283Z,100649.22
2019-01-15T13:06:53.759Z,100654.37
2019-01-15T13:09:29.764Z,100654.37
2019-01-15T13:12:15.068Z,100656.55
2019-01-15T13:14:53.980Z,100637.38
2019-01-15T13:17:40.225Z,100659.99
2019-01-15T13:20:13.417Z,100648.48
2019-01-15T13:22:55.626Z,100662.09
2019-01-15T13:25:42.340Z,100642.52
2019-01-15T13:28:28.310Z,100636.97
2019-01-15T13:31:02.557Z,100636.97
2019-01-15T13:33:38.833Z,100628.02
2019-01-15T13:36:27.651Z,100628.02
2019-01-15T13:39:13.720Z,100629.72
2019-01-15T13:41:46.657Z,100639.16
2019-01-15T13:44:19.456Z,100637.43
2019-01-15T13:47:01.409Z,100631.05
2019-01-15T13:49:43.919Z,100631.05
2019-01-15T13:52:30.516Z,100628.16
2019-01-15T13:55:00.759Z,100615.77
2019-01-15T13:57:30.971Z,100618.32
2019-01-15T14:00:19.164Z,100623.41
2019-01-15T14:03:01.430Z,100625.94
2019-01-15T14:05:37.531Z,100617.84
2019-01-15T14:08:10.214Z,100624.27
2019-01-15T14:10:43.064Z,100621.30
2019-01-15T14:13:41.928Z,100619.62
2019-01-15T14:16:15.197Z,100617.09
2019-01-15T14:18:47.602Z,100608.15
2019-01-15T14:21:20.577Z,100610.26
2019-01-15T14:23:50.750Z,100607.31
2019-01-15T14:26:29.956Z,100608.14
2019-01-15T14:29:09.170Z,100609.41
2019-01-15T14:31:44.945Z,100629.89
2019-01-15T14:34:27.086Z,100615.00
2019-01-15T14:36:57.179Z,100609.87
2019-01-15T14:39:36.234Z,100618.00
2019-01-15T14:42:09.331Z,100619.28
2019-01-15T14:44:45.169Z,100614.58
2019-01-15T14:47:33.412Z,100614.58
2019-01-15T14:50:12.742Z,100612.02
2019-01-15T14:52:45.636Z,100616.72
2019-01-15T14:55:32.794Z,100601.83
2019-01-15T14:58:02.907Z,100603.52
2019-01-15T15:00:49.429Z,100604.88
2019-01-15T15:03:36.085Z,100604.88
2019-01-15T15:06:12.844Z,100602.76
2019-01-15T15:08:43.052Z,100608.28
2019-01-15T15:11:27.899Z,100606.61
2019-01-15T15:14:14.464Z,100601.52
2019-01-15T15:16:47.999Z,100601.09
2019-01-15T15:19:27.037Z,100604.09
2019-01-15T15:22:06.203Z,100595.98
2019-01-15T15:24:36.383Z,100604.52
2019-01-15T15:27:06.683Z,100602.40
2019-01-15T15:29:36.830Z,100609.23
2019-01-15T15:32:22.902Z,100597.31
2019-01-15T15:34:53.092Z,100590.92
2019-01-15T15:37:29.180Z,100607.97
2019-01-15T15:39:59.368Z,100598.16
2019-01-15T15:42:32.004Z,100611.83
2019-01-15T15:45:05.919Z,100596.09
2019-01-15T15:47:54.440Z,100605.85
2019-01-15T15:50:39.322Z,100605.85
2019-01-15T15:53:12.123Z,100586.22
2019-01-15T15:55:58.162Z,100578.98
2019-01-15T15:58:29.412Z,100610.09
2019-01-15T16:01:02.192Z,100607.13
2019-01-15T16:03:35.097Z,100581.58
2019-01-15T16:06:07.970Z,100581.58
2019-01-15T16:08:44.070Z,100594.38
2019-01-15T16:11:31.489Z,100588.88
2019-01-15T16:14:03.951Z,100587.64
2019-01-15T16:16:37.208Z,100587.64
2019-01-15T16:19:10.258Z,100586.73
2019-01-15T16:21:58.618Z,100584.64
2019-01-15T16:24:36.398Z,100588.91
2019-01-15T16:27:09.514Z,100585.91
2019-01-15T16:29:45.516Z,100585.50
2019-01-15T16:32:30.616Z,100588.89
2019-01-15T16:35:00.817Z,100579.13
2019-01-15T16:37:36.486Z,100588.91
2019-01-15T16:40:14.859Z,100588.91
2019-01-15T16:42:47.478Z,100566.29
2019-01-15T16:45:34.011Z,100590.20
2019-01-15T16:48:12.967Z,100593.63
2019-01-15T16:50:58.913Z,100583.86
2019-01-15T16:53:38.180Z,100579.09
2019-01-15T16:56:08.381Z,100589.78
2019-01-15T16:58:38.530Z,100592.36
2019-01-15T17:01:24.934Z,100590.64
2019-01-15T17:04:02.419Z,100586.79
2019-01-15T17:06:44.668Z,100586.79
2019-01-15T17:09:21.073Z,100582.52
2019-01-15T17:12:07.388Z,100559.92
2019-01-15T17:14:52.717Z,100559.92
2019-01-15T17:17:35.220Z,100578.16
2019-01-15T17:20:15.329Z,100578.16
2019-01-15T17:22:45.424Z,100579.44
2019-01-15T17:25:15.729Z,100583.66
2019-01-15T17:27:51.754Z,100580.63
2019-01-15T17:30:21.922Z,100578.06
2019-01-15T17:33:10.163Z,100578.06
2019-01-15T17:35:43.117Z,100573.36
2019-01-15T17:38:19.317Z,100573.36
2019-01-15T17:40:52.259Z,100588.27
2019-01-15T17:43:22.331Z,100589.58
2019-01-15T17:45:55.241Z,100585.30
2019-01-15T17:48:41.697Z,100593.80
2019-01-15T17:51:21.167Z,100581.45
2019-01-15T17:54:03.196Z,100586.20
2019-01-15T17:56:42.285Z,100591.66
2019-01-15T17:59:18.104Z,100591.66
2019-01-15T18:01:56.831Z,100587.81
2019-01-15T18:04:29.452Z,100595.94
2019-01-15T18:06:59.674Z,100595.94
2019-01-15T18:09:29.834Z,100607.47
2019-01-15T18:12:09.393Z,100604.88
2019-01-15T18:14:39.562Z,100592.06
2019-01-15T18:17:12.530Z,100591.66
2019-01-15T18:19:58.640Z,100602.70
2019-01-15T18:22:37.644Z,100598.03
2019-01-15T18:25:14.841Z,100600.62
2019-01-15T18:27:56.790Z,100600.62
2019-01-15T18:30:45.012Z,100599.80
2019-01-15T18:33:15.415Z,100601.08
2019-01-15T18:35:50.047Z,100612.12
2019-01-15T18:38:20.162Z,100605.22
2019-01-15T18:40:55.899Z,100605.22
2019-01-15T18:43:44.072Z,100600.97
2019-01-15T18:46:16.821Z,100615.89
2019-01-15T18:48:56.731Z,100609.45
2019-01-15T18:51:33.051Z,100614.53
2019-01-15T18:54:09.058Z,100610.28
2019-01-15T18:56:54.357Z,100616.28
2019-01-15T18:59:33.413Z,100609.03
2019-01-15T19:02:30.203Z,100613.23
2019-01-15T19:05:18.504Z,100613.23
2019-01-15T19:07:57.801Z,100615.81
2019-01-15T19:10:27.899Z,100615.81
2019-01-15T19:13:00.807Z,100617.53
2019-01-15T19:15:48.953Z,100612.89
2019-01-15T19:18:25.703Z,100602.20
2019-01-15T19:20:55.768Z,100611.52
2019-01-15T19:23:38.275Z,100606.33
2019-01-15T19:26:08.450Z,100613.16
2019-01-15T19:28:38.547Z,100613.16
2019-01-15T19:31:08.634Z,100621.22
2019-01-15T19:33:44.496Z,100616.11
2019-01-15T19:36:14.603Z,100608.50
2019-01-15T19:38:47.154Z,100608.50
2019-01-15T19:41:26.041Z,100611.44
2019-01-15T19:43:58.908Z,100611.84
2019-01-15T19:46:29.144Z,100616.05
2019-01-15T19:48:59.381Z,100616.05
2019-01-15T19:51:32.253Z,100619.92
2019-01-15T19:54:04.765Z,100613.97
2019-01-15T19:56:34.920Z,100613.97
2019-01-15T19:59:16.830Z,100611.84
2019-01-15T20:01:49.774Z,100619.50
2019-01-15T20:04:36.865Z,100613.08
2019-01-15T20:07:08.890Z,100610.58
2019-01-15T20:09:54.349Z,100611.44
2019-01-15T20:12:34.346Z,100611.44
2019-01-15T20:15:05.599Z,100636.55
2019-01-15T20:17:55.439Z,100611.83
2019-01-15T20:20:32.041Z,100611.83
2019-01-15T20:23:30.105Z,100621.27
2019-01-15T20:26:08.652Z,100616.55
2019-01-15T20:32:04.481Z,100622.98
2019-01-15T20:34:47.581Z,100623.41
2019-01-15T20:40:50.931Z,100640.93
2019-01-15T20:43:34.230Z,100640.93
2019-01-15T20:46:07.559Z,100629.44
2019-01-15T20:48:54.314Z,100631.13
2019-01-15T20:51:27.891Z,100635.38
2019-01-15T20:54:08.486Z,100635.38
2019-01-15T20:56:57.188Z,100634.95
2019-01-15T20:59:30.932Z,100634.95
2019-01-15T21:02:04.099Z,100642.70
2019-01-15T21:04:50.474Z,100634.61
2019-01-15T21:07:29.874Z,100633.77
2019-01-15T21:10:00.486Z,100639.36
2019-01-15T21:12:33.711Z,100631.25
2019-01-15T21:15:06.897Z,100630.44
2019-01-15T21:17:44.894Z,100635.98
2019-01-15T21:20:31.527Z,100621.97
2019-01-15T21:23:18.236Z,100621.16
2019-01-15T21:25:55.864Z,100621.16
2019-01-15T21:28:42.968Z,100617.76
2019-01-15T21:31:29.627Z,100615.63
2019-01-15T21:34:00.310Z,100615.63
2019-01-15T21:36:36.902Z,100623.37
2019-01-15T21:39:11.328Z,100623.37
2019-01-15T21:41:46.234Z,100607.17
2019-01-15T21:44:16.398Z,100625.53
2019-01-15T21:46:46.847Z,100625.53
2019-01-15T21:49:23.333Z,100623.00
2019-01-15T21:52:02.663Z,100614.48
2019-01-15T21:54:41.864Z,100614.48
2019-01-15T21:57:21.429Z,100629.45
2019-01-15T21:59:54.853Z,100627.28
2019-01-15T22:02:25.435Z,100622.57
2019-01-15T22:05:00.216Z,100612.75
2019-01-15T22:07:32.066Z,100624.71
2019-01-15T22:10:10.061Z,100623.44
2019-01-15T22:12:49.570Z,100630.25
2019-01-15T22:15:20.028Z,100628.99
2019-01-15T22:17:50.469Z,100632.34
2019-01-15T22:20:24.333Z,100627.67
2019-01-15T22:22:56.484Z,100637.51
2019-01-15T22:25:27.166Z,100643.45
2019-01-15T22:28:13.280Z,100643.43
2019-01-15T22:30:46.918Z,100625.95
2019-01-15T22:33:20.494Z,100627.14
2019-01-15T22:36:18.067Z,100630.63
2019-01-15T22:39:21.089Z,100630.63
2019-01-15T22:42:19.814Z,100648.08
2019-01-15T22:44:50.479Z,100635.32
2019-01-15T22:47:40.301Z,100640.00
2019-01-15T22:50:16.025Z,100633.63
2019-01-15T22:53:04.049Z,100636.60
2019-01-15T22:55:53.543Z,100639.59
2019-01-15T22:58:29.807Z,100639.59
2019-01-15T23:01:20.387Z,100631.53
2019-01-15T23:03:53.498Z,100638.73
2019-01-15T23:06:32.202Z,100626.83
2019-01-15T23:09:08.337Z,100637.88
2019-01-15T23:11:44.598Z,100637.88
2019-01-15T23:14:32.745Z,100619.56
2019-01-15T23:17:05.569Z,100628.50
2019-01-15T23:19:44.750Z,100623.44
2019-01-15T23:22:30.635Z,100622.94
2019-01-15T23:25:16.861Z,100622.94
2019-01-15T23:28:02.243Z,100627.61
2019-01-15T23:30:48.816Z,100623.80
2019-01-15T23:33:21.579Z,100623.77
2019-01-15T23:35:54.110Z,100619.92
2019-01-15T23:38:24.199Z,100610.98
2019-01-15T23:41:10.571Z,100610.98
2019-01-15T23:43:57.155Z,100614.82
2019-01-15T23:46:28.684Z,100616.91
2019-01-15T23:48:58.773Z,100610.99
2019-01-15T23:51:44.813Z,100610.99
2019-01-15T23:54:14.968Z,100614.43
2019-01-15T23:56:54.783Z,100626.73
2019-01-15T23:59:27.649Z,100626.73
